createdAt,value
2019-05-17T00:00:24.290Z,8.10
2019-05-17T00:02:57.021Z,9.30
2019-05-17T00:05:26.616Z,10.40
2019-05-17T00:07:56.882Z,9.53
2019-05-17T00:10:27.111Z,9.10
2019-05-17T00:13:00.218Z,10.00
2019-05-17T00:15:44.363Z,8.50
2019-05-17T00:18:16.970Z,10.03
2019-05-17T00:20:49.615Z,10.10
2019-05-17T00:23:19.917Z,9.83
2019-05-17T00:25:50.132Z,9.90
2019-05-17T00:28:21.841Z,10.57
2019-05-17T00:30:52.043Z,11.40
2019-05-17T00:33:22.285Z,10.97
2019-05-17T00:35:52.494Z,10.77
2019-05-17T00:38:22.790Z,11.40
2019-05-17T00:40:52.996Z,10.95
2019-05-17T00:43:23.231Z,11.63
2019-05-17T00:45:59.137Z,10.90
2019-05-17T00:48:29.339Z,11.30
2019-05-17T00:51:03.413Z,11.33
2019-05-17T00:53:39.236Z,11.63
2019-05-17T00:56:09.621Z,10.67
2019-05-17T00:58:42.993Z,11.70
2019-05-17T01:01:13.219Z,11.45
2019-05-17T01:03:43.462Z,11.33
2019-05-17T01:06:16.915Z,11.60
2019-05-17T01:09:00.591Z,10.67
2019-05-17T01:11:19.581Z,10.67
2019-05-17T01:13:49.768Z,11.90
2019-05-17T01:16:19.968Z,11.90
2019-05-17T01:18:50.189Z,12.23
2019-05-17T01:21:20.408Z,11.97
2019-05-17T01:23:50.703Z,11.43
2019-05-17T01:26:21.024Z,12.00
2019-05-17T01:28:51.272Z,11.50
2019-05-17T01:31:21.465Z,11.45
2019-05-17T01:33:51.683Z,11.13
2019-05-17T01:36:21.894Z,10.87
2019-05-17T01:38:52.106Z,10.70
2019-05-17T01:41:22.301Z,11.80
2019-05-17T01:43:52.498Z,10.73
2019-05-17T01:46:22.770Z,11.53
2019-05-17T01:48:52.974Z,10.30
2019-05-17T01:51:23.178Z,10.13
2019-05-17T01:53:53.388Z,10.73
2019-05-17T01:56:23.588Z,11.03
2019-05-17T01:58:53.786Z,11.83
2019-05-17T02:01:23.992Z,10.47
2019-05-17T02:03:54.194Z,10.43
2019-05-17T02:06:24.423Z,10.82
2019-05-17T02:08:56.782Z,11.40
2019-05-17T02:11:27.053Z,10.60
2019-05-17T02:13:57.358Z,11.80
2019-05-17T02:16:27.576Z,11.05
2019-05-17T02:18:57.799Z,11.10
2019-05-17T02:21:28.036Z,10.83
2019-05-17T02:23:58.230Z,10.60
2019-05-17T02:26:28.442Z,10.80
2019-05-17T02:28:58.720Z,10.37
2019-05-17T02:31:32.652Z,11.13
2019-05-17T02:34:03.204Z,11.70
2019-05-17T02:36:33.573Z,9.85
2019-05-17T02:39:04.959Z,11.20
2019-05-17T02:41:35.506Z,11.55
2019-05-17T02:44:05.919Z,10.70
2019-05-17T02:46:36.120Z,10.93
2019-05-17T02:49:06.339Z,9.80
2019-05-17T02:51:36.556Z,11.50
2019-05-17T02:54:06.808Z,11.53
2019-05-17T02:56:37.002Z,11.03
2019-05-17T02:59:07.276Z,10.65
2019-05-17T03:01:37.495Z,10.53
2019-05-17T03:04:07.835Z,9.90
2019-05-17T03:06:38.041Z,10.00
2019-05-17T03:09:08.391Z,10.87
2019-05-17T03:11:38.611Z,10.70
2019-05-17T03:14:08.902Z,10.97
2019-05-17T03:16:39.111Z,10.90
2019-05-17T03:19:12.791Z,10.70
2019-05-17T03:21:42.900Z,9.93
2019-05-17T03:24:13.957Z,10.77
2019-05-17T03:26:44.454Z,10.30
2019-05-17T03:29:14.655Z,10.63
2019-05-17T03:31:53.440Z,11.67
2019-05-17T03:34:17.972Z,11.30
2019-05-17T03:36:48.714Z,10.80
2019-05-17T03:39:22.466Z,10.53
2019-05-17T03:41:53.533Z,10.90
2019-05-17T03:44:22.877Z,10.87
2019-05-17T03:46:53.389Z,11.20
2019-05-17T03:49:23.741Z,10.73
2019-05-17T03:51:54.062Z,11.93
2019-05-17T03:54:24.338Z,11.13
2019-05-17T03:56:54.629Z,10.90
2019-05-17T03:59:24.925Z,12.47
2019-05-17T04:01:55.135Z,12.33
2019-05-17T04:04:25.360Z,12.50
2019-05-17T04:06:55.568Z,11.70
2019-05-17T04:09:25.793Z,12.13
2019-05-17T04:11:56.029Z,10.17
2019-05-17T04:14:26.235Z,11.45
2019-05-17T04:16:56.457Z,11.00
2019-05-17T04:19:26.720Z,11.63
2019-05-17T04:21:56.935Z,12.50
2019-05-17T04:24:27.127Z,10.80
2019-05-17T04:26:57.416Z,11.73
2019-05-17T04:29:27.729Z,11.87
2019-05-17T04:31:57.949Z,12.00
2019-05-17T04:34:28.153Z,12.47
2019-05-17T04:36:58.376Z,12.40
2019-05-17T04:39:28.638Z,11.93
2019-05-17T04:41:58.853Z,12.73
2019-05-17T04:44:29.047Z,12.57
2019-05-17T04:47:02.764Z,12.78
2019-05-17T04:49:33.212Z,13.78
2019-05-17T04:52:03.827Z,12.70
2019-05-17T04:54:34.098Z,13.10
2019-05-17T04:57:04.321Z,13.50
2019-05-17T04:59:34.686Z,12.67
2019-05-17T05:02:06.707Z,14.27
2019-05-17T05:04:38.572Z,14.03
2019-05-17T05:07:08.999Z,14.57
2019-05-17T05:09:42.964Z,13.80
2019-05-17T05:12:12.739Z,13.37
2019-05-17T05:14:43.336Z,13.43
2019-05-17T05:17:13.580Z,12.30
2019-05-17T05:19:44.017Z,12.90
2019-05-17T05:22:17.410Z,11.53
2019-05-17T05:24:46.137Z,12.00
2019-05-17T05:27:17.361Z,11.98
2019-05-17T05:29:47.603Z,13.23
2019-05-17T05:32:17.818Z,12.97
2019-05-17T05:34:48.046Z,12.93
2019-05-17T05:37:20.257Z,14.40
2019-05-17T05:39:52.325Z,12.67
2019-05-17T05:42:22.199Z,12.53
2019-05-17T05:44:55.109Z,14.20
2019-05-17T05:47:24.313Z,13.00
2019-05-17T05:49:54.522Z,12.80
2019-05-17T05:52:24.749Z,13.57
2019-05-17T05:54:54.957Z,14.30
2019-05-17T05:57:25.188Z,14.77
2019-05-17T05:59:55.421Z,12.60
2019-05-17T06:02:25.637Z,13.03
2019-05-17T06:04:55.857Z,14.30
2019-05-17T06:07:26.060Z,14.13
2019-05-17T06:09:56.272Z,12.23
2019-05-17T06:12:28.177Z,11.80
2019-05-17T06:14:58.606Z,12.07
2019-05-17T06:17:28.830Z,12.90
2019-05-17T06:19:59.034Z,10.40
2019-05-17T06:22:31.705Z,10.33
2019-05-17T06:25:03.727Z,8.70
2019-05-17T06:27:33.162Z,8.73
2019-05-17T06:30:03.598Z,9.15
2019-05-17T06:32:33.821Z,9.17
2019-05-17T06:35:05.177Z,9.37
2019-05-17T06:37:35.402Z,11.33
2019-05-17T06:40:07.453Z,9.07
2019-05-17T06:42:41.184Z,9.17
2019-05-17T06:45:12.350Z,8.37
2019-05-17T06:47:42.735Z,10.93
2019-05-17T06:50:14.689Z,8.03
2019-05-17T06:52:45.019Z,8.23
2019-05-17T06:55:15.400Z,6.07
2019-05-17T06:57:45.596Z,5.17
2019-05-17T07:00:20.718Z,5.10
2019-05-17T07:02:49.828Z,3.87
2019-05-17T07:05:30.849Z,4.47
2019-05-17T07:08:01.066Z,3.63
2019-05-17T07:10:31.262Z,4.62
2019-05-17T07:13:12.543Z,4.93
2019-05-17T07:15:54.430Z,4.60
2019-05-17T07:18:39.967Z,5.00
2019-05-17T07:21:10.852Z,3.83
2019-05-17T07:23:41.818Z,3.98
2019-05-17T07:26:12.284Z,4.83
2019-05-17T07:28:42.496Z,5.30
2019-05-17T07:31:12.823Z,4.10
2019-05-17T07:33:43.040Z,3.60
2019-05-17T07:36:13.256Z,3.23
2019-05-17T07:38:43.488Z,3.15
2019-05-17T07:41:13.692Z,3.33
2019-05-17T07:43:43.902Z,2.90
2019-05-17T07:46:14.104Z,2.87
2019-05-17T07:48:44.417Z,2.83
2019-05-17T07:51:14.613Z,2.87
2019-05-17T07:53:44.825Z,2.77
2019-05-17T07:56:15.040Z,3.23
2019-05-17T07:58:45.245Z,2.50
2019-05-17T08:01:15.462Z,2.52
2019-05-17T08:03:45.691Z,2.83
2019-05-17T08:06:15.917Z,1.90
2019-05-17T08:08:46.137Z,3.03
2019-05-17T08:11:19.634Z,2.03
2019-05-17T08:13:50.448Z,2.07
2019-05-17T08:16:20.918Z,2.00
2019-05-17T08:18:51.146Z,1.80
2019-05-17T08:21:21.360Z,1.57
2019-05-17T08:23:51.609Z,1.53
2019-05-17T08:26:21.827Z,1.57
2019-05-17T08:28:52.058Z,1.50
2019-05-17T08:31:22.289Z,1.30
2019-05-17T08:33:52.518Z,1.60
2019-05-17T08:36:22.793Z,1.40
2019-05-17T08:38:53.099Z,1.30
2019-05-17T08:41:23.360Z,1.13
2019-05-17T08:43:53.582Z,1.10
2019-05-17T08:46:23.810Z,1.10
2019-05-17T08:48:54.058Z,1.13
2019-05-17T08:51:24.295Z,1.10
2019-05-17T08:53:54.532Z,1.27
2019-05-17T08:56:24.730Z,1.03
2019-05-17T08:58:55.050Z,1.23
2019-05-17T09:01:25.263Z,1.13
2019-05-17T09:03:55.486Z,1.10
2019-05-17T09:06:25.767Z,1.37
2019-05-17T09:08:56.001Z,1.43
2019-05-17T09:11:26.199Z,1.20
2019-05-17T09:14:01.158Z,1.00
2019-05-17T09:16:30.762Z,1.10
2019-05-17T09:19:00.641Z,0.93
2019-05-17T09:21:31.482Z,1.20
2019-05-17T09:24:01.854Z,0.90
2019-05-17T09:26:32.069Z,0.80
2019-05-17T09:29:02.273Z,1.20
2019-05-17T09:31:32.583Z,1.10
2019-05-17T09:34:02.788Z,1.10
2019-05-17T09:36:33.061Z,1.10
2019-05-17T09:39:04.897Z,0.90
2019-05-17T09:41:35.187Z,0.90
2019-05-17T09:44:12.790Z,1.40
2019-05-17T09:46:39.586Z,1.30
2019-05-17T09:49:10.389Z,1.13
2019-05-17T09:51:40.784Z,0.80
2019-05-17T09:54:11.099Z,1.10
2019-05-17T09:56:41.307Z,0.90
2019-05-17T09:59:11.561Z,1.20
2019-05-17T10:01:41.750Z,1.30
2019-05-17T10:04:13.410Z,1.10
2019-05-17T10:06:44.062Z,0.80
2019-05-17T10:09:14.941Z,0.90
2019-05-17T10:11:45.233Z,1.03
2019-05-17T10:14:25.800Z,1.20
2019-05-17T10:16:47.404Z,0.90
2019-05-17T10:19:20.842Z,0.93
2019-05-17T10:21:49.696Z,1.00
2019-05-17T10:24:23.962Z,1.03
2019-05-17T10:26:51.841Z,1.00
2019-05-17T10:29:22.064Z,0.88
2019-05-17T10:31:52.311Z,0.70
2019-05-17T10:34:22.521Z,0.82
2019-05-17T10:36:52.760Z,1.33
2019-05-17T10:39:22.979Z,1.10
2019-05-17T10:41:53.235Z,1.20
2019-05-17T10:44:23.455Z,1.30
2019-05-17T10:46:53.680Z,0.98
2019-05-17T10:49:23.902Z,1.00
2019-05-17T10:51:54.146Z,1.13
2019-05-17T10:54:24.358Z,1.00
2019-05-17T10:56:54.671Z,1.03
2019-05-17T10:59:24.936Z,1.10
2019-05-17T11:01:55.176Z,0.97
2019-05-17T11:04:25.399Z,0.90
2019-05-17T11:06:55.787Z,0.90
2019-05-17T11:09:26.776Z,1.77
2019-05-17T11:11:57.010Z,2.20
2019-05-17T11:14:27.216Z,1.73
2019-05-17T11:16:57.501Z,1.70
2019-05-17T11:19:27.852Z,1.50
2019-05-17T11:21:58.079Z,1.50
2019-05-17T11:24:28.294Z,1.20
2019-05-17T11:26:58.519Z,1.20
2019-05-17T11:29:28.813Z,1.22
2019-05-17T11:31:59.022Z,0.90
2019-05-17T11:34:29.228Z,1.00
2019-05-17T11:36:59.535Z,0.90
2019-05-17T11:39:29.807Z,0.80
2019-05-17T11:42:00.122Z,0.90
2019-05-17T11:44:30.327Z,1.87
2019-05-17T11:47:00.639Z,1.67
2019-05-17T11:49:30.864Z,1.53
2019-05-17T11:52:01.102Z,1.40
2019-05-17T11:54:31.493Z,1.40
2019-05-17T11:57:01.722Z,1.22
2019-05-17T11:59:31.996Z,1.62
2019-05-17T12:02:02.295Z,1.60
2019-05-17T12:04:32.638Z,1.40
2019-05-17T12:07:15.427Z,1.70
2019-05-17T12:09:45.724Z,1.40
2019-05-17T12:12:16.038Z,1.43
2019-05-17T12:14:46.292Z,1.30
2019-05-17T12:17:16.490Z,1.13
2019-05-17T12:19:55.076Z,1.12
2019-05-17T12:22:25.296Z,1.10
2019-05-17T12:24:55.501Z,1.30
2019-05-17T12:27:25.711Z,0.90
2019-05-17T12:29:56.016Z,1.03
2019-05-17T12:32:26.208Z,1.10
2019-05-17T12:34:56.465Z,1.10
2019-05-17T12:37:26.657Z,1.00
2019-05-17T12:39:56.880Z,0.90
2019-05-17T12:42:27.108Z,0.90
2019-05-17T12:44:57.366Z,0.87
2019-05-17T12:47:27.563Z,0.70
2019-05-17T12:49:57.786Z,0.80
2019-05-17T12:52:28.065Z,0.97
2019-05-17T12:54:58.337Z,0.90
2019-05-17T12:57:28.565Z,0.90
2019-05-17T12:59:58.792Z,1.07
2019-05-17T13:02:29.000Z,1.03
2019-05-17T13:04:59.324Z,1.10
2019-05-17T13:07:29.530Z,1.00
2019-05-17T13:09:59.839Z,1.20
2019-05-17T13:12:30.071Z,1.20
2019-05-17T13:15:00.365Z,0.90
2019-05-17T13:17:30.684Z,1.27
2019-05-17T13:20:00.943Z,1.07
2019-05-17T13:22:31.251Z,1.10
2019-05-17T13:25:01.444Z,1.00
2019-05-17T13:27:31.653Z,0.90
2019-05-17T13:30:01.870Z,1.07
2019-05-17T13:32:32.086Z,1.00
2019-05-17T13:35:02.287Z,1.20
2019-05-17T13:37:32.528Z,1.33
2019-05-17T13:40:03.198Z,1.30
2019-05-17T13:42:33.419Z,1.22
2019-05-17T13:45:05.729Z,1.30
2019-05-17T13:47:35.963Z,1.20
2019-05-17T13:50:07.870Z,1.33
2019-05-17T13:56:33.326Z,1.40
2019-05-17T13:59:03.523Z,1.60
2019-05-17T14:01:33.750Z,1.40
2019-05-17T14:04:04.039Z,1.50
2019-05-17T14:06:34.232Z,1.30
2019-05-17T14:09:07.456Z,1.60
2019-05-17T14:11:37.694Z,1.37
2019-05-17T14:14:07.989Z,1.40
2019-05-17T14:16:38.495Z,1.73
2019-05-17T14:19:08.761Z,1.60
2019-05-17T14:21:39.024Z,1.53
2019-05-17T14:24:09.274Z,1.47
2019-05-17T14:26:39.606Z,1.30
2019-05-17T14:29:09.825Z,1.20
2019-05-17T14:31:40.034Z,1.23
2019-05-17T14:34:10.246Z,1.13
2019-05-17T14:36:40.564Z,1.13
2019-05-17T14:39:10.828Z,1.37
2019-05-17T14:41:41.086Z,1.20
2019-05-17T14:44:11.351Z,1.17
2019-05-17T14:46:41.563Z,1.17
2019-05-17T14:49:11.787Z,1.03
2019-05-17T14:51:41.996Z,1.00
2019-05-17T14:54:12.258Z,0.90
2019-05-17T14:56:42.721Z,0.90
2019-05-17T14:59:12.978Z,1.07
2019-05-17T15:01:43.256Z,1.00
2019-05-17T15:04:13.519Z,0.83
2019-05-17T15:06:43.753Z,0.93
2019-05-17T15:09:13.996Z,1.00
2019-05-17T15:11:44.226Z,1.00
2019-05-17T15:14:14.446Z,1.20
2019-05-17T15:16:44.671Z,1.03
2019-05-17T15:19:14.881Z,0.80
2019-05-17T15:21:45.125Z,0.97
2019-05-17T15:24:15.321Z,1.00
2019-05-17T15:26:45.626Z,1.27
2019-05-17T15:29:15.839Z,1.30
2019-05-17T15:31:46.055Z,1.33
2019-05-17T15:34:16.278Z,1.53
2019-05-17T15:36:46.514Z,1.73
2019-05-17T15:39:16.820Z,1.30
2019-05-17T15:41:47.247Z,2.25
2019-05-17T15:44:18.071Z,2.50
2019-05-17T15:46:48.329Z,1.87
2019-05-17T15:49:18.524Z,2.10
2019-05-17T15:51:48.924Z,2.30
2019-05-17T15:54:19.131Z,2.42
2019-05-17T15:56:49.360Z,2.63
2019-05-17T15:59:19.556Z,2.90
2019-05-17T16:01:49.791Z,2.97
2019-05-17T16:04:20.074Z,2.73
2019-05-17T16:06:50.432Z,2.00
2019-05-17T16:09:20.664Z,2.07
2019-05-17T16:11:50.889Z,1.70
2019-05-17T16:14:21.079Z,2.12
2019-05-17T16:16:51.310Z,2.00
2019-05-17T16:19:21.515Z,1.70
2019-05-17T16:21:51.711Z,1.50
2019-05-17T16:24:21.942Z,1.70
2019-05-17T16:26:52.159Z,1.73
2019-05-17T16:29:22.418Z,1.60
2019-05-17T16:31:52.690Z,1.60
2019-05-17T16:34:22.971Z,1.57
2019-05-17T16:36:53.177Z,1.20
2019-05-17T16:39:23.380Z,1.77
2019-05-17T16:41:53.581Z,2.07
2019-05-17T16:44:23.793Z,1.50
2019-05-17T16:46:54.090Z,1.70
2019-05-17T16:49:24.309Z,1.60
2019-05-17T16:51:54.784Z,1.50
2019-05-17T16:54:25.011Z,1.47
2019-05-17T16:56:55.239Z,1.20
2019-05-17T16:59:25.622Z,1.20
2019-05-17T17:01:55.889Z,1.40
2019-05-17T17:04:26.129Z,1.23
2019-05-17T17:06:56.336Z,1.17
2019-05-17T17:09:26.546Z,1.10
2019-05-17T17:11:56.739Z,1.17
2019-05-17T17:14:26.957Z,1.20
2019-05-17T17:16:57.158Z,1.03
2019-05-17T17:19:27.371Z,1.10
2019-05-17T17:21:57.694Z,1.13
2019-05-17T17:24:27.961Z,1.20
2019-05-17T17:26:58.316Z,1.00
2019-05-17T17:29:28.562Z,1.30
2019-05-17T17:31:58.859Z,1.27
2019-05-17T17:34:29.087Z,1.00
2019-05-17T17:36:59.316Z,0.93
2019-05-17T17:39:29.535Z,1.30
2019-05-17T17:41:59.753Z,1.70
2019-05-17T17:44:29.957Z,1.77
2019-05-17T17:47:00.189Z,1.45
2019-05-17T17:49:30.625Z,1.90
2019-05-17T17:52:00.889Z,1.57
2019-05-17T17:54:31.116Z,1.23
2019-05-17T17:57:01.326Z,1.50
2019-05-17T17:59:31.518Z,1.50
2019-05-17T18:02:01.734Z,1.20
2019-05-17T18:04:31.959Z,1.20
2019-05-17T18:07:02.166Z,1.25
2019-05-17T18:09:32.375Z,1.37
2019-05-17T18:12:02.616Z,1.13
2019-05-17T18:14:32.913Z,1.10
2019-05-17T18:17:03.130Z,1.10
2019-05-17T18:19:33.375Z,1.10
2019-05-17T18:22:03.555Z,1.00
2019-05-17T18:24:33.778Z,1.20
2019-05-17T18:27:04.001Z,1.20
2019-05-17T18:29:34.241Z,1.00
2019-05-17T18:32:04.513Z,1.03
2019-05-17T18:34:34.743Z,1.00
2019-05-17T18:37:05.025Z,1.37
2019-05-17T18:39:35.257Z,1.20
2019-05-17T18:42:05.530Z,2.00
2019-05-17T18:44:35.826Z,1.60
2019-05-17T18:47:06.212Z,1.80
2019-05-17T18:49:36.435Z,1.77
2019-05-17T18:52:06.720Z,1.80
2019-05-17T18:54:36.956Z,1.60
2019-05-17T18:57:07.149Z,1.47
2019-05-17T18:59:37.364Z,1.40
2019-05-17T19:02:07.590Z,1.53
2019-05-17T19:04:37.792Z,1.30
2019-05-17T19:07:08.178Z,1.30
2019-05-17T19:09:38.483Z,1.20
2019-05-17T19:12:08.759Z,1.37
2019-05-17T19:14:42.998Z,1.17
2019-05-17T19:17:10.935Z,1.30
2019-05-17T19:19:41.907Z,1.40
2019-05-17T19:22:12.137Z,1.43
2019-05-17T19:24:42.423Z,1.27
2019-05-17T19:27:12.652Z,1.50
2019-05-17T19:29:43.485Z,1.10
2019-05-17T19:32:13.711Z,1.27
2019-05-17T19:34:43.925Z,1.20
2019-05-17T19:37:14.150Z,1.70
2019-05-17T19:39:44.398Z,1.70
2019-05-17T19:42:14.615Z,1.50
2019-05-17T19:44:57.946Z,1.30
2019-05-17T19:47:16.740Z,1.50
2019-05-17T19:49:47.004Z,1.47
2019-05-17T19:52:18.441Z,1.77
2019-05-17T19:54:48.663Z,1.60
2019-05-17T19:57:18.873Z,1.77
2019-05-17T19:59:49.107Z,1.40
2019-05-17T20:02:19.365Z,1.50
2019-05-17T20:04:49.595Z,1.40
2019-05-17T20:07:19.797Z,1.50
2019-05-17T20:09:50.134Z,1.30
2019-05-17T20:12:20.353Z,1.60
2019-05-17T20:14:50.572Z,1.67
2019-05-17T20:17:21.461Z,1.60
2019-05-17T20:19:51.687Z,1.53
2019-05-17T20:22:21.903Z,1.47
2019-05-17T20:24:52.158Z,1.90
2019-05-17T20:27:22.362Z,1.60
2019-05-17T20:29:52.757Z,1.90
2019-05-17T20:32:22.989Z,1.85
2019-05-17T20:34:53.230Z,1.80
2019-05-17T20:37:23.418Z,1.90
2019-05-17T20:39:53.647Z,2.10
2019-05-17T20:42:23.881Z,2.03
2019-05-17T20:44:54.157Z,2.10
2019-05-17T20:47:24.546Z,2.30
2019-05-17T20:49:54.790Z,2.53
2019-05-17T20:52:25.005Z,2.13
2019-05-17T20:54:55.247Z,2.10
2019-05-17T20:57:25.466Z,2.35
2019-05-17T20:59:55.686Z,2.07
2019-05-17T21:02:26.120Z,2.20
2019-05-17T21:04:56.323Z,2.03
2019-05-17T21:07:26.530Z,2.60
2019-05-17T21:09:56.771Z,2.50
2019-05-17T21:12:26.971Z,2.33
2019-05-17T21:14:57.192Z,2.57
2019-05-17T21:17:27.399Z,2.70
2019-05-17T21:19:57.647Z,2.33
2019-05-17T21:22:27.871Z,2.33
2019-05-17T21:24:58.101Z,2.47
2019-05-17T21:27:28.332Z,2.60
2019-05-17T21:29:58.571Z,2.43
2019-05-17T21:32:28.762Z,2.60
2019-05-17T21:34:59.024Z,2.70
2019-05-17T21:37:29.302Z,2.60
2019-05-17T21:39:59.524Z,2.23
2019-05-17T21:42:29.741Z,2.10
2019-05-17T21:44:59.957Z,2.40
2019-05-17T21:47:30.160Z,2.30
2019-05-17T21:50:00.373Z,2.30
2019-05-17T21:52:30.588Z,2.60
2019-05-17T21:55:00.789Z,2.80
2019-05-17T21:57:31.000Z,2.90
2019-05-17T22:00:01.286Z,2.53
2019-05-17T22:02:31.626Z,2.45
2019-05-17T22:05:01.858Z,3.20
2019-05-17T22:07:32.075Z,3.13
2019-05-17T22:10:02.304Z,2.47
2019-05-17T22:12:32.496Z,2.77
2019-05-17T22:15:02.697Z,2.60
2019-05-17T22:17:32.901Z,2.73
2019-05-17T22:20:03.468Z,2.63
2019-05-17T22:22:33.708Z,2.58
2019-05-17T22:25:05.240Z,2.70
2019-05-17T22:27:35.495Z,2.80
2019-05-17T22:30:10.476Z,2.97
2019-05-17T22:32:40.698Z,3.37
2019-05-17T22:35:11.123Z,3.00
2019-05-17T22:37:41.378Z,2.53
2019-05-17T22:40:11.644Z,3.33
2019-05-17T22:42:41.878Z,3.10
2019-05-17T22:45:13.013Z,3.37
2019-05-17T22:47:43.248Z,3.43
2019-05-17T22:50:13.816Z,3.40
2019-05-17T22:52:44.111Z,2.97
2019-05-17T22:55:14.651Z,3.33
2019-05-17T22:57:44.882Z,3.33
2019-05-17T23:00:15.681Z,3.23
2019-05-17T23:02:45.927Z,3.30
2019-05-17T23:05:16.134Z,3.20
2019-05-17T23:07:46.955Z,3.53
2019-05-17T23:10:18.699Z,3.07
2019-05-17T23:12:48.939Z,3.57
2019-05-17T23:15:19.471Z,3.40
2019-05-17T23:17:49.711Z,3.80
2019-05-17T23:20:19.998Z,3.40
2019-05-17T23:22:50.213Z,3.40
2019-05-17T23:25:20.424Z,3.57
2019-05-17T23:27:50.627Z,3.40
2019-05-17T23:30:20.827Z,3.93
2019-05-17T23:32:51.021Z,3.97
2019-05-17T23:35:21.251Z,3.70
2019-05-17T23:37:51.447Z,3.50
2019-05-17T23:40:21.669Z,3.37
2019-05-17T23:42:51.866Z,3.60
2019-05-17T23:45:22.076Z,3.63
2019-05-17T23:47:52.274Z,3.40
2019-05-17T23:50:22.491Z,3.77
2019-05-17T23:52:52.704Z,3.57
2019-05-17T23:55:22.917Z,4.00
2019-05-17T23:57:53.178Z,3.83
